sensor_id;sensor_type;location;lat;lon;timestamp;P1;durP1;ratioP1;P2;durP2;ratioP2
12110;SDS011;6119;52.372;8.990;2023-08-06T00:01:22;7.87;;;3.53;;
12110;SDS011;6119;52.372;8.990;2023-08-06T00:04:10;3.57;;;3.27;;
12110;SDS011;6119;52.372;8.990;2023-08-06T00:06:58;3.50;;;3.20;;
12110;SDS011;6119;52.372;8.990;2023-08-06T00:09:45;4.67;;;3.10;;
12110;SDS011;6119;52.372;8.990;2023-08-06T00:12:31;3.33;;;2.90;;
12110;SDS011;6119;52.372;8.990;2023-08-06T00:15:18;4.17;;;3.30;;
12110;SDS011;6119;52.372;8.990;2023-08-06T00:18:05;3.47;;;3.10;;
12110;SDS011;6119;52.372;8.990;2023-08-06T00:20:52;3.30;;;3.00;;
12110;SDS011;6119;52.372;8.990;2023-08-06T00:23:40;3.53;;;3.20;;
12110;SDS011;6119;52.372;8.990;2023-08-06T00:26:27;3.37;;;3.07;;
12110;SDS011;6119;52.372;8.990;2023-08-06T00:29:14;3.77;;;3.30;;
12110;SDS011;6119;52.372;8.990;2023-08-06T00:32:01;6.47;;;3.53;;
12110;SDS011;6119;52.372;8.990;2023-08-06T00:34:48;4.40;;;3.00;;
12110;SDS011;6119;52.372;8.990;2023-08-06T00:37:35;6.33;;;3.13;;
12110;SDS011;6119;52.372;8.990;2023-08-06T00:40:23;5.33;;;3.20;;
12110;SDS011;6119;52.372;8.990;2023-08-06T00:43:10;4.23;;;3.07;;
12110;SDS011;6119;52.372;8.990;2023-08-06T00:45:56;4.57;;;3.20;;
12110;SDS011;6119;52.372;8.990;2023-08-06T00:48:42;6.57;;;2.63;;
12110;SDS011;6119;52.372;8.990;2023-08-06T00:51:29;3.47;;;3.00;;
12110;SDS011;6119;52.372;8.990;2023-08-06T00:54:16;4.37;;;2.83;;
12110;SDS011;6119;52.372;8.990;2023-08-06T00:57:05;6.83;;;2.90;;
12110;SDS011;6119;52.372;8.990;2023-08-06T00:59:55;3.70;;;3.10;;
12110;SDS011;6119;52.372;8.990;2023-08-06T01:02:42;3.23;;;2.93;;
12110;SDS011;6119;52.372;8.990;2023-08-06T01:05:29;3.13;;;2.80;;
12110;SDS011;6119;52.372;8.990;2023-08-06T01:08:19;2.60;;;2.40;;
12110;SDS011;6119;52.372;8.990;2023-08-06T01:11:17;3.20;;;2.90;;
12110;SDS011;6119;52.372;8.990;2023-08-06T01:14:13;7.70;;;2.77;;
12110;SDS011;6119;52.372;8.990;2023-08-06T01:17:06;3.00;;;2.60;;
12110;SDS011;6119;52.372;8.990;2023-08-06T01:19:55;3.40;;;2.87;;
12110;SDS011;6119;52.372;8.990;2023-08-06T01:22:43;5.50;;;3.33;;
12110;SDS011;6119;52.372;8.990;2023-08-06T01:25:33;3.63;;;2.70;;
12110;SDS011;6119;52.372;8.990;2023-08-06T01:28:35;2.70;;;2.50;;
12110;SDS011;6119;52.372;8.990;2023-08-06T01:31:30;3.60;;;2.77;;
12110;SDS011;6119;52.372;8.990;2023-08-06T01:34:21;3.03;;;2.73;;
12110;SDS011;6119;52.372;8.990;2023-08-06T01:37:09;6.13;;;2.50;;
12110;SDS011;6119;52.372;8.990;2023-08-06T01:39:58;4.93;;;2.83;;
12110;SDS011;6119;52.372;8.990;2023-08-06T01:42:45;2.90;;;2.63;;
12110;SDS011;6119;52.372;8.990;2023-08-06T01:45:31;3.30;;;2.87;;
12110;SDS011;6119;52.372;8.990;2023-08-06T01:48:18;4.63;;;3.00;;
12110;SDS011;6119;52.372;8.990;2023-08-06T01:51:05;3.53;;;2.90;;
12110;SDS011;6119;52.372;8.990;2023-08-06T01:53:52;3.53;;;3.10;;
12110;SDS011;6119;52.372;8.990;2023-08-06T01:56:40;3.67;;;3.00;;
12110;SDS011;6119;52.372;8.990;2023-08-06T01:59:26;9.97;;;3.50;;
12110;SDS011;6119;52.372;8.990;2023-08-06T02:02:13;4.30;;;3.03;;
12110;SDS011;6119;52.372;8.990;2023-08-06T02:05:00;6.20;;;3.20;;
12110;SDS011;6119;52.372;8.990;2023-08-06T02:07:46;5.03;;;3.10;;
12110;SDS011;6119;52.372;8.990;2023-08-06T02:10:33;8.17;;;3.17;;
12110;SDS011;6119;52.372;8.990;2023-08-06T02:13:21;6.63;;;2.80;;
12110;SDS011;6119;52.372;8.990;2023-08-06T02:16:08;3.70;;;3.00;;
12110;SDS011;6119;52.372;8.990;2023-08-06T02:18:55;7.80;;;3.00;;
12110;SDS011;6119;52.372;8.990;2023-08-06T02:21:41;2.60;;;2.40;;
12110;SDS011;6119;52.372;8.990;2023-08-06T02:24:28;3.37;;;2.83;;
12110;SDS011;6119;52.372;8.990;2023-08-06T02:27:15;3.40;;;2.67;;
12110;SDS011;6119;52.372;8.990;2023-08-06T02:30:03;3.70;;;2.67;;
12110;SDS011;6119;52.372;8.990;2023-08-06T02:32:51;3.47;;;2.57;;
12110;SDS011;6119;52.372;8.990;2023-08-06T02:35:38;3.47;;;3.00;;
12110;SDS011;6119;52.372;8.990;2023-08-06T02:38:24;6.77;;;2.93;;
12110;SDS011;6119;52.372;8.990;2023-08-06T02:41:11;5.33;;;2.60;;
12110;SDS011;6119;52.372;8.990;2023-08-06T02:43:57;4.10;;;3.33;;
12110;SDS011;6119;52.372;8.990;2023-08-06T02:46:45;3.63;;;3.30;;
12110;SDS011;6119;52.372;8.990;2023-08-06T02:49:32;3.40;;;2.90;;
12110;SDS011;6119;52.372;8.990;2023-08-06T02:52:19;3.13;;;2.83;;
12110;SDS011;6119;52.372;8.990;2023-08-06T02:55:06;4.43;;;3.30;;
12110;SDS011;6119;52.372;8.990;2023-08-06T02:57:53;3.47;;;3.17;;
12110;SDS011;6119;52.372;8.990;2023-08-06T03:00:39;2.87;;;2.67;;
12110;SDS011;6119;52.372;8.990;2023-08-06T03:03:28;6.57;;;2.77;;
12110;SDS011;6119;52.372;8.990;2023-08-06T03:06:15;4.73;;;3.10;;
12110;SDS011;6119;52.372;8.990;2023-08-06T03:09:02;4.37;;;3.27;;
12110;SDS011;6119;52.372;8.990;2023-08-06T03:11:49;4.93;;;3.03;;
12110;SDS011;6119;52.372;8.990;2023-08-06T03:14:35;5.40;;;2.97;;
12110;SDS011;6119;52.372;8.990;2023-08-06T03:17:22;4.47;;;2.97;;
12110;SDS011;6119;52.372;8.990;2023-08-06T03:20:10;5.80;;;3.03;;
12110;SDS011;6119;52.372;8.990;2023-08-06T03:22:57;8.30;;;3.10;;
12110;SDS011;6119;52.372;8.990;2023-08-06T03:25:44;4.67;;;2.90;;
12110;SDS011;6119;52.372;8.990;2023-08-06T03:28:31;5.27;;;3.40;;
12110;SDS011;6119;52.372;8.990;2023-08-06T03:31:18;7.93;;;3.23;;
12110;SDS011;6119;52.372;8.990;2023-08-06T03:34:04;3.77;;;3.20;;
12110;SDS011;6119;52.372;8.990;2023-08-06T03:36:52;6.57;;;3.23;;
12110;SDS011;6119;52.372;8.990;2023-08-06T03:39:39;5.13;;;3.17;;
12110;SDS011;6119;52.372;8.990;2023-08-06T03:42:26;3.40;;;2.77;;
12110;SDS011;6119;52.372;8.990;2023-08-06T03:45:13;4.33;;;3.10;;
12110;SDS011;6119;52.372;8.990;2023-08-06T03:47:59;6.07;;;3.50;;
12110;SDS011;6119;52.372;8.990;2023-08-06T03:50:46;4.00;;;3.57;;
12110;SDS011;6119;52.372;8.990;2023-08-06T03:53:34;4.33;;;3.30;;
12110;SDS011;6119;52.372;8.990;2023-08-06T03:56:20;5.40;;;3.20;;
12110;SDS011;6119;52.372;8.990;2023-08-06T03:59:07;4.83;;;3.47;;
12110;SDS011;6119;52.372;8.990;2023-08-06T04:01:54;4.70;;;3.50;;
12110;SDS011;6119;52.372;8.990;2023-08-06T04:04:40;4.20;;;3.53;;
12110;SDS011;6119;52.372;8.990;2023-08-06T04:07:27;6.07;;;3.17;;
12110;SDS011;6119;52.372;8.990;2023-08-06T04:10:15;4.93;;;3.30;;
12110;SDS011;6119;52.372;8.990;2023-08-06T04:13:02;3.43;;;3.13;;
12110;SDS011;6119;52.372;8.990;2023-08-06T04:15:48;6.17;;;3.57;;
12110;SDS011;6119;52.372;8.990;2023-08-06T04:18:35;4.43;;;3.67;;
12110;SDS011;6119;52.372;8.990;2023-08-06T04:21:22;5.47;;;4.00;;
12110;SDS011;6119;52.372;8.990;2023-08-06T04:24:09;4.20;;;3.80;;
12110;SDS011;6119;52.372;8.990;2023-08-06T04:26:57;4.80;;;3.80;;
12110;SDS011;6119;52.372;8.990;2023-08-06T04:29:44;6.47;;;4.30;;
12110;SDS011;6119;52.372;8.990;2023-08-06T04:32:30;6.33;;;4.60;;
12110;SDS011;6119;52.372;8.990;2023-08-06T04:35:17;6.93;;;4.03;;
12110;SDS011;6119;52.372;8.990;2023-08-06T04:38:03;7.23;;;4.40;;
12110;SDS011;6119;52.372;8.990;2023-08-06T04:40:50;4.83;;;4.23;;
12110;SDS011;6119;52.372;8.990;2023-08-06T04:43:38;6.23;;;4.50;;
12110;SDS011;6119;52.372;8.990;2023-08-06T04:46:25;6.23;;;4.90;;
12110;SDS011;6119;52.372;8.990;2023-08-06T04:49:12;7.83;;;4.77;;
12110;SDS011;6119;52.372;8.990;2023-08-06T04:51:59;6.43;;;4.97;;
12110;SDS011;6119;52.372;8.990;2023-08-06T04:54:45;7.00;;;4.87;;
12110;SDS011;6119;52.372;8.990;2023-08-06T04:57:32;6.47;;;4.60;;
12110;SDS011;6119;52.372;8.990;2023-08-06T05:00:20;6.97;;;4.93;;
12110;SDS011;6119;52.372;8.990;2023-08-06T05:03:07;6.17;;;5.03;;
12110;SDS011;6119;52.372;8.990;2023-08-06T05:05:54;5.53;;;4.50;;
12110;SDS011;6119;52.372;8.990;2023-08-06T05:08:41;6.10;;;4.80;;
12110;SDS011;6119;52.372;8.990;2023-08-06T05:11:27;6.17;;;5.00;;
12110;SDS011;6119;52.372;8.990;2023-08-06T05:14:14;7.43;;;5.80;;
12110;SDS011;6119;52.372;8.990;2023-08-06T05:17:02;8.33;;;5.33;;
12110;SDS011;6119;52.372;8.990;2023-08-06T05:19:49;9.57;;;6.67;;
12110;SDS011;6119;52.372;8.990;2023-08-06T05:22:36;10.07;;;6.57;;
12110;SDS011;6119;52.372;8.990;2023-08-06T05:25:23;12.90;;;6.47;;
12110;SDS011;6119;52.372;8.990;2023-08-06T05:28:10;7.10;;;6.13;;
12110;SDS011;6119;52.372;8.990;2023-08-06T05:30:57;6.60;;;5.83;;
12110;SDS011;6119;52.372;8.990;2023-08-06T05:33:45;8.00;;;6.13;;
12110;SDS011;6119;52.372;8.990;2023-08-06T05:36:31;9.47;;;5.80;;
12110;SDS011;6119;52.372;8.990;2023-08-06T05:39:18;7.70;;;6.20;;
12110;SDS011;6119;52.372;8.990;2023-08-06T05:42:05;6.37;;;5.67;;
12110;SDS011;6119;52.372;8.990;2023-08-06T05:44:52;11.10;;;6.10;;
12110;SDS011;6119;52.372;8.990;2023-08-06T05:47:38;6.40;;;5.70;;
12110;SDS011;6119;52.372;8.990;2023-08-06T05:50:26;6.97;;;5.87;;
12110;SDS011;6119;52.372;8.990;2023-08-06T05:53:13;5.83;;;5.23;;
12110;SDS011;6119;52.372;8.990;2023-08-06T05:56:00;6.93;;;5.73;;
12110;SDS011;6119;52.372;8.990;2023-08-06T05:58:46;6.40;;;4.93;;
12110;SDS011;6119;52.372;8.990;2023-08-06T06:01:35;5.33;;;4.83;;
12110;SDS011;6119;52.372;8.990;2023-08-06T06:04:22;7.80;;;5.33;;
12110;SDS011;6119;52.372;8.990;2023-08-06T06:07:10;6.87;;;4.80;;
12110;SDS011;6119;52.372;8.990;2023-08-06T06:09:57;6.30;;;4.80;;
12110;SDS011;6119;52.372;8.990;2023-08-06T06:12:44;8.53;;;4.40;;
12110;SDS011;6119;52.372;8.990;2023-08-06T06:15:30;5.43;;;4.20;;
12110;SDS011;6119;52.372;8.990;2023-08-06T06:18:17;7.77;;;4.40;;
12110;SDS011;6119;52.372;8.990;2023-08-06T06:21:04;7.60;;;4.73;;
12110;SDS011;6119;52.372;8.990;2023-08-06T06:23:52;5.43;;;4.00;;
12110;SDS011;6119;52.372;8.990;2023-08-06T06:26:39;4.60;;;3.97;;
12110;SDS011;6119;52.372;8.990;2023-08-06T06:29:25;4.87;;;3.97;;
12110;SDS011;6119;52.372;8.990;2023-08-06T06:32:12;9.90;;;4.23;;
12110;SDS011;6119;52.372;8.990;2023-08-06T06:34:58;5.53;;;4.63;;
12110;SDS011;6119;52.372;8.990;2023-08-06T06:37:45;6.10;;;4.80;;
12110;SDS011;6119;52.372;8.990;2023-08-06T06:40:33;7.50;;;4.30;;
12110;SDS011;6119;52.372;8.990;2023-08-06T06:43:20;5.60;;;4.30;;
12110;SDS011;6119;52.372;8.990;2023-08-06T06:46:07;4.67;;;4.17;;
12110;SDS011;6119;52.372;8.990;2023-08-06T06:48:53;4.30;;;3.80;;
12110;SDS011;6119;52.372;8.990;2023-08-06T06:51:40;5.70;;;4.33;;
12110;SDS011;6119;52.372;8.990;2023-08-06T06:54:27;7.07;;;3.80;;
12110;SDS011;6119;52.372;8.990;2023-08-06T06:57:15;4.23;;;3.83;;
12110;SDS011;6119;52.372;8.990;2023-08-06T07:00:01;4.67;;;3.70;;
12110;SDS011;6119;52.372;8.990;2023-08-06T07:02:50;4.90;;;4.13;;
12110;SDS011;6119;52.372;8.990;2023-08-06T07:05:37;3.30;;;3.00;;
12110;SDS011;6119;52.372;8.990;2023-08-06T07:08:24;4.30;;;3.60;;
12110;SDS011;6119;52.372;8.990;2023-08-06T07:11:11;4.77;;;3.77;;
12110;SDS011;6119;52.372;8.990;2023-08-06T07:13:59;3.70;;;3.40;;
12110;SDS011;6119;52.372;8.990;2023-08-06T07:16:45;3.77;;;3.47;;
12110;SDS011;6119;52.372;8.990;2023-08-06T07:19:32;3.37;;;3.07;;
12110;SDS011;6119;52.372;8.990;2023-08-06T07:22:19;4.70;;;3.40;;
12110;SDS011;6119;52.372;8.990;2023-08-06T07:25:06;4.83;;;3.30;;
12110;SDS011;6119;52.372;8.990;2023-08-06T07:27:53;3.70;;;3.40;;
12110;SDS011;6119;52.372;8.990;2023-08-06T07:30:43;3.27;;;2.97;;
12110;SDS011;6119;52.372;8.990;2023-08-06T07:33:30;3.23;;;2.90;;
12110;SDS011;6119;52.372;8.990;2023-08-06T07:36:17;3.03;;;2.70;;
12110;SDS011;6119;52.372;8.990;2023-08-06T07:39:04;3.30;;;2.87;;
12110;SDS011;6119;52.372;8.990;2023-08-06T07:41:51;3.33;;;3.03;;
12110;SDS011;6119;52.372;8.990;2023-08-06T07:44:38;7.77;;;3.00;;
12110;SDS011;6119;52.372;8.990;2023-08-06T07:47:27;3.00;;;2.70;;
12110;SDS011;6119;52.372;8.990;2023-08-06T07:50:14;5.30;;;3.03;;
12110;SDS011;6119;52.372;8.990;2023-08-06T07:53:00;4.73;;;3.20;;
12110;SDS011;6119;52.372;8.990;2023-08-06T07:55:48;3.07;;;2.77;;
12110;SDS011;6119;52.372;8.990;2023-08-06T07:58:36;3.03;;;2.83;;
12110;SDS011;6119;52.372;8.990;2023-08-06T08:01:23;3.30;;;2.97;;
12110;SDS011;6119;52.372;8.990;2023-08-06T08:04:12;3.80;;;2.80;;
12110;SDS011;6119;52.372;8.990;2023-08-06T08:07:00;5.63;;;3.10;;
12110;SDS011;6119;52.372;8.990;2023-08-06T08:09:47;3.03;;;2.80;;
12110;SDS011;6119;52.372;8.990;2023-08-06T08:12:34;3.80;;;2.80;;
12110;SDS011;6119;52.372;8.990;2023-08-06T08:15:21;3.13;;;2.60;;
12110;SDS011;6119;52.372;8.990;2023-08-06T08:18:12;3.40;;;2.80;;
12110;SDS011;6119;52.372;8.990;2023-08-06T08:21:00;3.93;;;3.00;;
12110;SDS011;6119;52.372;8.990;2023-08-06T08:23:47;2.83;;;2.57;;
12110;SDS011;6119;52.372;8.990;2023-08-06T08:26:33;3.43;;;3.13;;
12110;SDS011;6119;52.372;8.990;2023-08-06T08:29:20;3.87;;;2.77;;
12110;SDS011;6119;52.372;8.990;2023-08-06T08:32:07;3.23;;;2.93;;
12110;SDS011;6119;52.372;8.990;2023-08-06T08:34:54;4.80;;;3.20;;
12110;SDS011;6119;52.372;8.990;2023-08-06T08:37:42;2.87;;;2.67;;
12110;SDS011;6119;52.372;8.990;2023-08-06T08:40:29;3.20;;;2.90;;
12110;SDS011;6119;52.372;8.990;2023-08-06T08:43:18;3.07;;;2.77;;
12110;SDS011;6119;52.372;8.990;2023-08-06T08:46:07;3.40;;;2.97;;
12110;SDS011;6119;52.372;8.990;2023-08-06T08:48:55;3.57;;;2.90;;
12110;SDS011;6119;52.372;8.990;2023-08-06T08:51:43;3.13;;;2.83;;
12110;SDS011;6119;52.372;8.990;2023-08-06T08:54:33;4.43;;;3.10;;
12110;SDS011;6119;52.372;8.990;2023-08-06T08:57:21;3.03;;;2.80;;
12110;SDS011;6119;52.372;8.990;2023-08-06T09:00:08;3.40;;;3.10;;
12110;SDS011;6119;52.372;8.990;2023-08-06T09:02:55;3.67;;;2.77;;
12110;SDS011;6119;52.372;8.990;2023-08-06T09:05:45;3.87;;;3.00;;
12110;SDS011;6119;52.372;8.990;2023-08-06T09:08:36;2.97;;;2.67;;
12110;SDS011;6119;52.372;8.990;2023-08-06T09:11:26;2.90;;;2.53;;
12110;SDS011;6119;52.372;8.990;2023-08-06T09:14:14;3.50;;;2.60;;
12110;SDS011;6119;52.372;8.990;2023-08-06T09:17:01;4.00;;;2.70;;
12110;SDS011;6119;52.372;8.990;2023-08-06T09:19:49;3.40;;;3.10;;
12110;SDS011;6119;52.372;8.990;2023-08-06T09:22:36;3.33;;;3.03;;
12110;SDS011;6119;52.372;8.990;2023-08-06T09:25:24;3.63;;;2.17;;
12110;SDS011;6119;52.372;8.990;2023-08-06T09:28:14;3.00;;;2.70;;
12110;SDS011;6119;52.372;8.990;2023-08-06T09:31:01;3.17;;;2.77;;
12110;SDS011;6119;52.372;8.990;2023-08-06T09:33:48;4.57;;;2.80;;
12110;SDS011;6119;52.372;8.990;2023-08-06T09:36:34;4.23;;;2.60;;
12110;SDS011;6119;52.372;8.990;2023-08-06T09:39:26;3.37;;;2.70;;
12110;SDS011;6119;52.372;8.990;2023-08-06T09:42:14;3.50;;;2.63;;
12110;SDS011;6119;52.372;8.990;2023-08-06T09:45:07;3.53;;;2.70;;
12110;SDS011;6119;52.372;8.990;2023-08-06T09:47:55;2.70;;;2.47;;
12110;SDS011;6119;52.372;8.990;2023-08-06T09:50:42;2.77;;;2.50;;
12110;SDS011;6119;52.372;8.990;2023-08-06T09:53:30;4.17;;;2.60;;
12110;SDS011;6119;52.372;8.990;2023-08-06T09:56:19;4.60;;;2.70;;
12110;SDS011;6119;52.372;8.990;2023-08-06T09:59:06;3.60;;;2.50;;
12110;SDS011;6119;52.372;8.990;2023-08-06T10:01:54;2.47;;;2.27;;
12110;SDS011;6119;52.372;8.990;2023-08-06T10:04:42;2.70;;;2.40;;
12110;SDS011;6119;52.372;8.990;2023-08-06T10:07:39;3.77;;;2.60;;
12110;SDS011;6119;52.372;8.990;2023-08-06T10:10:26;2.53;;;2.30;;
12110;SDS011;6119;52.372;8.990;2023-08-06T10:13:14;2.40;;;2.20;;
12110;SDS011;6119;52.372;8.990;2023-08-06T10:16:03;2.83;;;2.53;;
12110;SDS011;6119;52.372;8.990;2023-08-06T10:18:53;3.43;;;2.50;;
12110;SDS011;6119;52.372;8.990;2023-08-06T10:21:40;2.83;;;2.20;;
12110;SDS011;6119;52.372;8.990;2023-08-06T10:24:27;3.87;;;2.23;;
12110;SDS011;6119;52.372;8.990;2023-08-06T10:27:32;2.57;;;2.37;;
12110;SDS011;6119;52.372;8.990;2023-08-06T10:30:24;2.30;;;2.10;;
12110;SDS011;6119;52.372;8.990;2023-08-06T10:33:12;2.50;;;2.20;;
12110;SDS011;6119;52.372;8.990;2023-08-06T10:36:02;2.30;;;2.10;;
12110;SDS011;6119;52.372;8.990;2023-08-06T10:38:58;3.57;;;2.37;;
12110;SDS011;6119;52.372;8.990;2023-08-06T10:41:46;2.70;;;2.50;;
12110;SDS011;6119;52.372;8.990;2023-08-06T10:44:32;2.93;;;2.50;;
12110;SDS011;6119;52.372;8.990;2023-08-06T10:47:28;4.20;;;2.40;;
12110;SDS011;6119;52.372;8.990;2023-08-06T10:50:15;3.40;;;2.60;;
12110;SDS011;6119;52.372;8.990;2023-08-06T10:53:07;2.73;;;2.33;;
12110;SDS011;6119;52.372;8.990;2023-08-06T10:55:57;2.73;;;2.53;;
12110;SDS011;6119;52.372;8.990;2023-08-06T10:58:46;2.70;;;2.40;;
12110;SDS011;6119;52.372;8.990;2023-08-06T11:01:33;2.50;;;2.30;;
12110;SDS011;6119;52.372;8.990;2023-08-06T11:04:21;4.90;;;2.77;;
12110;SDS011;6119;52.372;8.990;2023-08-06T11:07:07;2.47;;;2.17;;
12110;SDS011;6119;52.372;8.990;2023-08-06T11:10:01;2.00;;;1.90;;
12110;SDS011;6119;52.372;8.990;2023-08-06T11:12:49;2.40;;;2.17;;
12110;SDS011;6119;52.372;8.990;2023-08-06T11:15:35;2.83;;;1.97;;
12110;SDS011;6119;52.372;8.990;2023-08-06T11:18:22;2.40;;;2.20;;
12110;SDS011;6119;52.372;8.990;2023-08-06T11:21:09;3.30;;;2.60;;
12110;SDS011;6119;52.372;8.990;2023-08-06T11:23:56;2.50;;;2.30;;
12110;SDS011;6119;52.372;8.990;2023-08-06T11:26:44;3.50;;;2.60;;
12110;SDS011;6119;52.372;8.990;2023-08-06T11:29:31;2.60;;;2.40;;
12110;SDS011;6119;52.372;8.990;2023-08-06T11:32:23;2.57;;;2.37;;
12110;SDS011;6119;52.372;8.990;2023-08-06T11:35:10;3.13;;;2.50;;
12110;SDS011;6119;52.372;8.990;2023-08-06T11:37:58;2.80;;;2.20;;
12110;SDS011;6119;52.372;8.990;2023-08-06T11:40:46;3.10;;;2.40;;
12110;SDS011;6119;52.372;8.990;2023-08-06T11:43:34;3.23;;;2.57;;
12110;SDS011;6119;52.372;8.990;2023-08-06T11:46:21;5.43;;;2.93;;
12110;SDS011;6119;52.372;8.990;2023-08-06T11:49:09;6.07;;;2.57;;
12110;SDS011;6119;52.372;8.990;2023-08-06T11:51:56;6.60;;;2.90;;
12110;SDS011;6119;52.372;8.990;2023-08-06T11:54:42;4.50;;;3.17;;
12110;SDS011;6119;52.372;8.990;2023-08-06T11:57:29;5.33;;;3.10;;
12110;SDS011;6119;52.372;8.990;2023-08-06T12:00:22;6.77;;;3.60;;
12110;SDS011;6119;52.372;8.990;2023-08-06T12:03:10;2.37;;;2.17;;
12110;SDS011;6119;52.372;8.990;2023-08-06T12:05:56;1.70;;;1.60;;
12110;SDS011;6119;52.372;8.990;2023-08-06T12:08:44;1.53;;;1.43;;
12110;SDS011;6119;52.372;8.990;2023-08-06T12:11:30;1.40;;;1.30;;
12110;SDS011;6119;52.372;8.990;2023-08-06T12:14:17;1.43;;;1.33;;
12110;SDS011;6119;52.372;8.990;2023-08-06T12:17:05;1.50;;;1.40;;
12110;SDS011;6119;52.372;8.990;2023-08-06T12:19:51;2.33;;;1.40;;
12110;SDS011;6119;52.372;8.990;2023-08-06T12:22:38;3.40;;;2.00;;
12110;SDS011;6119;52.372;8.990;2023-08-06T12:25:25;3.37;;;1.97;;
12110;SDS011;6119;52.372;8.990;2023-08-06T12:28:12;2.57;;;1.70;;
12110;SDS011;6119;52.372;8.990;2023-08-06T12:30:58;3.23;;;2.07;;
12110;SDS011;6119;52.372;8.990;2023-08-06T12:33:46;3.30;;;2.30;;
12110;SDS011;6119;52.372;8.990;2023-08-06T12:36:33;2.20;;;2.00;;
12110;SDS011;6119;52.372;8.990;2023-08-06T12:39:20;4.03;;;2.33;;
12110;SDS011;6119;52.372;8.990;2023-08-06T12:42:07;2.70;;;2.00;;
12110;SDS011;6119;52.372;8.990;2023-08-06T12:44:55;4.73;;;2.67;;
12110;SDS011;6119;52.372;8.990;2023-08-06T12:47:41;4.63;;;2.70;;
12110;SDS011;6119;52.372;8.990;2023-08-06T12:50:29;3.73;;;2.70;;
12110;SDS011;6119;52.372;8.990;2023-08-06T12:53:18;3.43;;;2.53;;
12110;SDS011;6119;52.372;8.990;2023-08-06T12:56:06;3.37;;;2.30;;
12110;SDS011;6119;52.372;8.990;2023-08-06T12:58:52;5.13;;;2.37;;
12110;SDS011;6119;52.372;8.990;2023-08-06T13:01:39;3.60;;;2.47;;
12110;SDS011;6119;52.372;8.990;2023-08-06T13:04:25;5.27;;;2.90;;
12110;SDS011;6119;52.372;8.990;2023-08-06T13:07:14;5.67;;;2.70;;
12110;SDS011;6119;52.372;8.990;2023-08-06T13:10:01;4.10;;;2.40;;
12110;SDS011;6119;52.372;8.990;2023-08-06T13:12:47;3.70;;;2.40;;
12110;SDS011;6119;52.372;8.990;2023-08-06T13:15:34;3.47;;;2.60;;
12110;SDS011;6119;52.372;8.990;2023-08-06T13:18:20;2.03;;;1.93;;
12110;SDS011;6119;52.372;8.990;2023-08-06T13:21:07;2.50;;;2.10;;
12110;SDS011;6119;52.372;8.990;2023-08-06T13:23:55;2.40;;;2.10;;
12110;SDS011;6119;52.372;8.990;2023-08-06T13:26:42;2.33;;;2.13;;
12110;SDS011;6119;52.372;8.990;2023-08-06T13:29:29;4.47;;;2.63;;
12110;SDS011;6119;52.372;8.990;2023-08-06T13:32:15;3.00;;;2.33;;
12110;SDS011;6119;52.372;8.990;2023-08-06T13:35:02;2.57;;;2.37;;
12110;SDS011;6119;52.372;8.990;2023-08-06T13:37:49;2.30;;;2.10;;
12110;SDS011;6119;52.372;8.990;2023-08-06T13:40:37;3.00;;;2.70;;
12110;SDS011;6119;52.372;8.990;2023-08-06T13:43:24;3.30;;;3.00;;
12110;SDS011;6119;52.372;8.990;2023-08-06T13:46:11;3.20;;;2.90;;
12110;SDS011;6119;52.372;8.990;2023-08-06T13:49:01;3.00;;;2.70;;
12110;SDS011;6119;52.372;8.990;2023-08-06T13:51:48;3.93;;;3.33;;
12110;SDS011;6119;52.372;8.990;2023-08-06T13:54:34;4.83;;;3.13;;
12110;SDS011;6119;52.372;8.990;2023-08-06T13:57:23;2.97;;;2.70;;
12110;SDS011;6119;52.372;8.990;2023-08-06T14:00:10;2.53;;;2.33;;
12110;SDS011;6119;52.372;8.990;2023-08-06T14:02:57;2.50;;;2.30;;
12110;SDS011;6119;52.372;8.990;2023-08-06T14:05:44;3.77;;;2.20;;
12110;SDS011;6119;52.372;8.990;2023-08-06T14:08:31;2.87;;;2.30;;
12110;SDS011;6119;52.372;8.990;2023-08-06T14:11:17;3.03;;;1.90;;
12110;SDS011;6119;52.372;8.990;2023-08-06T14:14:06;2.20;;;2.00;;
12110;SDS011;6119;52.372;8.990;2023-08-06T14:16:53;2.00;;;1.90;;
12110;SDS011;6119;52.372;8.990;2023-08-06T14:19:41;2.33;;;2.17;;
12110;SDS011;6119;52.372;8.990;2023-08-06T14:22:28;2.50;;;1.87;;
12110;SDS011;6119;52.372;8.990;2023-08-06T14:25:15;2.00;;;1.90;;
12110;SDS011;6119;52.372;8.990;2023-08-06T14:28:02;4.03;;;2.03;;
12110;SDS011;6119;52.372;8.990;2023-08-06T14:30:53;2.00;;;1.90;;
12110;SDS011;6119;52.372;8.990;2023-08-06T14:33:42;2.27;;;2.07;;
12110;SDS011;6119;52.372;8.990;2023-08-06T14:36:29;2.80;;;1.60;;
12110;SDS011;6119;52.372;8.990;2023-08-06T14:39:15;2.50;;;1.70;;
12110;SDS011;6119;52.372;8.990;2023-08-06T14:42:02;2.43;;;1.80;;
12110;SDS011;6119;52.372;8.990;2023-08-06T14:44:50;5.03;;;1.90;;
12110;SDS011;6119;52.372;8.990;2023-08-06T14:47:39;1.43;;;1.33;;
12110;SDS011;6119;52.372;8.990;2023-08-06T14:50:25;3.63;;;1.60;;
12110;SDS011;6119;52.372;8.990;2023-08-06T14:53:12;1.57;;;1.47;;
12110;SDS011;6119;52.372;8.990;2023-08-06T14:55:59;1.73;;;1.63;;
12110;SDS011;6119;52.372;8.990;2023-08-06T14:58:46;2.00;;;1.80;;
12110;SDS011;6119;52.372;8.990;2023-08-06T15:01:32;1.57;;;1.47;;
12110;SDS011;6119;52.372;8.990;2023-08-06T15:04:21;2.00;;;1.80;;
12110;SDS011;6119;52.372;8.990;2023-08-06T15:07:08;1.63;;;1.53;;
12110;SDS011;6119;52.372;8.990;2023-08-06T15:09:55;2.30;;;2.10;;
12110;SDS011;6119;52.372;8.990;2023-08-06T15:13:02;3.17;;;2.10;;
12110;SDS011;6119;52.372;8.990;2023-08-06T15:15:49;6.87;;;1.97;;
12110;SDS011;6119;52.372;8.990;2023-08-06T15:18:36;2.27;;;2.03;;
12110;SDS011;6119;52.372;8.990;2023-08-06T15:21:24;1.97;;;1.87;;
12110;SDS011;6119;52.372;8.990;2023-08-06T15:24:11;2.30;;;2.10;;
12110;SDS011;6119;52.372;8.990;2023-08-06T15:26:58;2.00;;;1.80;;
12110;SDS011;6119;52.372;8.990;2023-08-06T15:29:45;2.07;;;1.90;;
12110;SDS011;6119;52.372;8.990;2023-08-06T15:32:31;2.10;;;1.90;;
12110;SDS011;6119;52.372;8.990;2023-08-06T15:35:18;7.03;;;2.50;;
12110;SDS011;6119;52.372;8.990;2023-08-06T15:38:07;2.37;;;2.13;;
12110;SDS011;6119;52.372;8.990;2023-08-06T15:40:54;3.67;;;2.20;;
12110;SDS011;6119;52.372;8.990;2023-08-06T15:43:40;2.87;;;2.13;;
12110;SDS011;6119;52.372;8.990;2023-08-06T15:46:28;2.60;;;2.13;;
12110;SDS011;6119;52.372;8.990;2023-08-06T15:49:14;2.43;;;1.90;;
12110;SDS011;6119;52.372;8.990;2023-08-06T15:52:01;2.90;;;2.47;;
12110;SDS011;6119;52.372;8.990;2023-08-06T15:54:49;3.97;;;2.73;;
12110;SDS011;6119;52.372;8.990;2023-08-06T15:57:36;4.40;;;2.30;;
12110;SDS011;6119;52.372;8.990;2023-08-06T16:00:23;4.17;;;2.80;;
12110;SDS011;6119;52.372;8.990;2023-08-06T16:03:11;8.73;;;4.03;;
12110;SDS011;6119;52.372;8.990;2023-08-06T16:05:58;4.87;;;2.90;;
12110;SDS011;6119;52.372;8.990;2023-08-06T16:08:45;2.83;;;2.60;;
12110;SDS011;6119;52.372;8.990;2023-08-06T16:11:33;4.03;;;3.30;;
12110;SDS011;6119;52.372;8.990;2023-08-06T16:14:20;5.13;;;2.93;;
12110;SDS011;6119;52.372;8.990;2023-08-06T16:17:06;3.93;;;2.80;;
12110;SDS011;6119;52.372;8.990;2023-08-06T16:19:53;3.77;;;3.13;;
12110;SDS011;6119;52.372;8.990;2023-08-06T16:22:40;4.60;;;3.40;;
12110;SDS011;6119;52.372;8.990;2023-08-06T16:25:28;4.90;;;3.20;;
12110;SDS011;6119;52.372;8.990;2023-08-06T16:28:16;4.67;;;3.10;;
12110;SDS011;6119;52.372;8.990;2023-08-06T16:31:03;5.47;;;3.13;;
12110;SDS011;6119;52.372;8.990;2023-08-06T16:33:49;4.17;;;3.30;;
12110;SDS011;6119;52.372;8.990;2023-08-06T16:36:36;3.37;;;2.90;;
12110;SDS011;6119;52.372;8.990;2023-08-06T16:39:23;5.60;;;3.70;;
12110;SDS011;6119;52.372;8.990;2023-08-06T16:42:12;7.10;;;3.30;;
12110;SDS011;6119;52.372;8.990;2023-08-06T16:45:00;4.10;;;3.00;;
12110;SDS011;6119;52.372;8.990;2023-08-06T16:47:47;3.97;;;2.47;;
12110;SDS011;6119;52.372;8.990;2023-08-06T16:50:34;3.90;;;2.77;;
12110;SDS011;6119;52.372;8.990;2023-08-06T16:53:24;4.53;;;3.20;;
12110;SDS011;6119;52.372;8.990;2023-08-06T16:56:11;4.63;;;2.90;;
12110;SDS011;6119;52.372;8.990;2023-08-06T16:58:57;2.77;;;2.43;;
12110;SDS011;6119;52.372;8.990;2023-08-06T17:01:47;4.23;;;2.80;;
12110;SDS011;6119;52.372;8.990;2023-08-06T17:04:34;3.33;;;2.47;;